sensor_id;sensor_type;location;lat;lon;timestamp;P1;durP1;ratioP1;P2;durP2;ratioP2
24383;SDS011;12504;52.870;8.798;2023-03-01T00:00:37;4.15;;;3.70;;
24383;SDS011;12504;52.870;8.798;2023-03-01T00:03:04;7.70;;;4.13;;
24383;SDS011;12504;52.870;8.798;2023-03-01T00:05:30;8.63;;;4.30;;
24383;SDS011;12504;52.870;8.798;2023-03-01T00:07:57;8.70;;;4.38;;
24383;SDS011;12504;52.870;8.798;2023-03-01T00:10:23;5.57;;;4.10;;
24383;SDS011;12504;52.870;8.798;2023-03-01T00:12:49;7.70;;;4.28;;
24383;SDS011;12504;52.870;8.798;2023-03-01T00:15:15;8.02;;;3.90;;
24383;SDS011;12504;52.870;8.798;2023-03-01T00:17:41;8.02;;;3.92;;
24383;SDS011;12504;52.870;8.798;2023-03-01T00:20:07;9.82;;;3.63;;
24383;SDS011;12504;52.870;8.798;2023-03-01T00:22:35;10.40;;;4.28;;
24383;SDS011;12504;52.870;8.798;2023-03-01T00:25:03;10.68;;;3.90;;
24383;SDS011;12504;52.870;8.798;2023-03-01T00:27:29;7.47;;;3.35;;
24383;SDS011;12504;52.870;8.798;2023-03-01T00:29:56;7.22;;;3.67;;
24383;SDS011;12504;52.870;8.798;2023-03-01T00:32:22;11.20;;;3.35;;
24383;SDS011;12504;52.870;8.798;2023-03-01T00:34:50;13.48;;;3.97;;
24383;SDS011;12504;52.870;8.798;2023-03-01T00:37:21;6.60;;;3.90;;
24383;SDS011;12504;52.870;8.798;2023-03-01T00:39:47;6.87;;;3.73;;
24383;SDS011;12504;52.870;8.798;2023-03-01T00:42:14;7.33;;;3.87;;
24383;SDS011;12504;52.870;8.798;2023-03-01T00:44:40;6.72;;;3.72;;
24383;SDS011;12504;52.870;8.798;2023-03-01T00:47:07;8.10;;;4.17;;
24383;SDS011;12504;52.870;8.798;2023-03-01T00:49:33;7.65;;;3.47;;
24383;SDS011;12504;52.870;8.798;2023-03-01T00:51:59;5.20;;;4.20;;
24383;SDS011;12504;52.870;8.798;2023-03-01T00:54:25;4.85;;;3.20;;
24383;SDS011;12504;52.870;8.798;2023-03-01T00:56:51;8.55;;;3.78;;
24383;SDS011;12504;52.870;8.798;2023-03-01T00:59:17;8.38;;;3.65;;
24383;SDS011;12504;52.870;8.798;2023-03-01T01:01:43;8.48;;;4.03;;
24383;SDS011;12504;52.870;8.798;2023-03-01T01:04:11;7.70;;;3.65;;
24383;SDS011;12504;52.870;8.798;2023-03-01T01:06:38;9.13;;;4.05;;
24383;SDS011;12504;52.870;8.798;2023-03-01T01:09:07;8.32;;;4.13;;
24383;SDS011;12504;52.870;8.798;2023-03-01T01:11:34;7.72;;;3.97;;
24383;SDS011;12504;52.870;8.798;2023-03-01T01:14:04;5.50;;;3.95;;
24383;SDS011;12504;52.870;8.798;2023-03-01T01:16:30;7.10;;;4.03;;
24383;SDS011;12504;52.870;8.798;2023-03-01T01:18:56;12.10;;;4.03;;
24383;SDS011;12504;52.870;8.798;2023-03-01T01:21:23;10.03;;;4.13;;
24383;SDS011;12504;52.870;8.798;2023-03-01T01:23:49;6.38;;;3.85;;
24383;SDS011;12504;52.870;8.798;2023-03-01T01:26:20;6.73;;;3.43;;
24383;SDS011;12504;52.870;8.798;2023-03-01T01:28:48;10.63;;;3.97;;
24383;SDS011;12504;52.870;8.798;2023-03-01T01:31:15;8.60;;;4.37;;
24383;SDS011;12504;52.870;8.798;2023-03-01T01:33:41;12.97;;;4.70;;
24383;SDS011;12504;52.870;8.798;2023-03-01T01:36:08;6.77;;;4.60;;
24383;SDS011;12504;52.870;8.798;2023-03-01T01:38:35;4.83;;;3.83;;
24383;SDS011;12504;52.870;8.798;2023-03-01T01:41:02;7.53;;;4.87;;
24383;SDS011;12504;52.870;8.798;2023-03-01T01:43:30;9.03;;;5.23;;
24383;SDS011;12504;52.870;8.798;2023-03-01T01:46:04;10.27;;;5.00;;
24383;SDS011;12504;52.870;8.798;2023-03-01T01:48:52;9.47;;;4.50;;
24383;SDS011;12504;52.870;8.798;2023-03-01T01:51:21;11.53;;;4.67;;
24383;SDS011;12504;52.870;8.798;2023-03-01T01:53:49;8.70;;;4.30;;
24383;SDS011;12504;52.870;8.798;2023-03-01T01:56:16;7.33;;;4.00;;
24383;SDS011;12504;52.870;8.798;2023-03-01T01:58:43;6.10;;;3.93;;
24383;SDS011;12504;52.870;8.798;2023-03-01T02:01:10;8.40;;;3.60;;
24383;SDS011;12504;52.870;8.798;2023-03-01T02:03:36;10.77;;;5.53;;
24383;SDS011;12504;52.870;8.798;2023-03-01T02:08:35;8.13;;;3.97;;
24383;SDS011;12504;52.870;8.798;2023-03-01T02:11:02;12.73;;;5.07;;
24383;SDS011;12504;52.870;8.798;2023-03-01T02:13:31;10.27;;;4.67;;
24383;SDS011;12504;52.870;8.798;2023-03-01T02:15:58;8.67;;;3.73;;
24383;SDS011;12504;52.870;8.798;2023-03-01T02:18:25;9.50;;;4.37;;
24383;SDS011;12504;52.870;8.798;2023-03-01T02:21:01;8.30;;;4.20;;
24383;SDS011;12504;52.870;8.798;2023-03-01T02:23:29;8.60;;;5.10;;
24383;SDS011;12504;52.870;8.798;2023-03-01T02:28:37;9.97;;;4.80;;
24383;SDS011;12504;52.870;8.798;2023-03-01T02:31:05;6.80;;;4.15;;
24383;SDS011;12504;52.870;8.798;2023-03-01T02:33:50;10.50;;;4.10;;
24383;SDS011;12504;52.870;8.798;2023-03-01T02:36:18;7.73;;;3.60;;
24383;SDS011;12504;52.870;8.798;2023-03-01T02:38:45;14.53;;;3.83;;
24383;SDS011;12504;52.870;8.798;2023-03-01T02:41:13;13.37;;;5.10;;
24383;SDS011;12504;52.870;8.798;2023-03-01T02:43:41;5.93;;;4.47;;
24383;SDS011;12504;52.870;8.798;2023-03-01T02:46:12;12.03;;;5.07;;
24383;SDS011;12504;52.870;8.798;2023-03-01T02:48:43;9.87;;;4.57;;
24383;SDS011;12504;52.870;8.798;2023-03-01T02:53:41;9.70;;;4.67;;
24383;SDS011;12504;52.870;8.798;2023-03-01T02:56:10;7.53;;;4.30;;
24383;SDS011;12504;52.870;8.798;2023-03-01T02:58:40;12.37;;;4.47;;
24383;SDS011;12504;52.870;8.798;2023-03-01T03:01:12;8.63;;;4.83;;
24383;SDS011;12504;52.870;8.798;2023-03-01T03:03:40;8.10;;;4.13;;
24383;SDS011;12504;52.870;8.798;2023-03-01T03:06:06;7.90;;;4.20;;
24383;SDS011;12504;52.870;8.798;2023-03-01T03:08:33;11.67;;;4.50;;
24383;SDS011;12504;52.870;8.798;2023-03-01T03:10:59;12.23;;;5.00;;
24383;SDS011;12504;52.870;8.798;2023-03-01T03:13:25;5.07;;;3.70;;
24383;SDS011;12504;52.870;8.798;2023-03-01T03:15:54;10.87;;;4.87;;
24383;SDS011;12504;52.870;8.798;2023-03-01T03:18:21;13.73;;;4.97;;
24383;SDS011;12504;52.870;8.798;2023-03-01T03:20:48;7.80;;;3.73;;
24383;SDS011;12504;52.870;8.798;2023-03-01T03:23:18;5.13;;;3.55;;
24383;SDS011;12504;52.870;8.798;2023-03-01T03:25:47;6.20;;;3.70;;
24383;SDS011;12504;52.870;8.798;2023-03-01T03:28:13;7.97;;;4.43;;
24383;SDS011;12504;52.870;8.798;2023-03-01T03:30:41;8.07;;;3.87;;
24383;SDS011;12504;52.870;8.798;2023-03-01T03:33:07;10.20;;;4.17;;
24383;SDS011;12504;52.870;8.798;2023-03-01T03:35:44;16.10;;;5.30;;
24383;SDS011;12504;52.870;8.798;2023-03-01T03:38:11;8.17;;;4.13;;
24383;SDS011;12504;52.870;8.798;2023-03-01T03:43:10;6.30;;;3.20;;
24383;SDS011;12504;52.870;8.798;2023-03-01T03:45:37;8.93;;;3.43;;
24383;SDS011;12504;52.870;8.798;2023-03-01T03:48:06;6.07;;;3.57;;
24383;SDS011;12504;52.870;8.798;2023-03-01T03:50:32;7.20;;;3.60;;
24383;SDS011;12504;52.870;8.798;2023-03-01T03:53:02;5.80;;;3.77;;
24383;SDS011;12504;52.870;8.798;2023-03-01T03:55:29;8.57;;;4.33;;
24383;SDS011;12504;52.870;8.798;2023-03-01T03:57:57;6.57;;;3.37;;
24383;SDS011;12504;52.870;8.798;2023-03-01T04:00:25;6.57;;;4.20;;
24383;SDS011;12504;52.870;8.798;2023-03-01T04:02:52;6.80;;;4.23;;
24383;SDS011;12504;52.870;8.798;2023-03-01T04:05:21;8.87;;;4.10;;
24383;SDS011;12504;52.870;8.798;2023-03-01T04:07:48;6.93;;;3.63;;
24383;SDS011;12504;52.870;8.798;2023-03-01T04:10:26;7.07;;;4.33;;
24383;SDS011;12504;52.870;8.798;2023-03-01T04:12:53;5.97;;;3.77;;
24383;SDS011;12504;52.870;8.798;2023-03-01T04:15:21;6.60;;;3.70;;
24383;SDS011;12504;52.870;8.798;2023-03-01T04:17:49;10.30;;;5.03;;
24383;SDS011;12504;52.870;8.798;2023-03-01T04:20:18;13.30;;;5.13;;
24383;SDS011;12504;52.870;8.798;2023-03-01T04:23:13;8.27;;;3.90;;
24383;SDS011;12504;52.870;8.798;2023-03-01T04:28:29;10.03;;;4.80;;
24383;SDS011;12504;52.870;8.798;2023-03-01T04:30:57;9.57;;;5.23;;
24383;SDS011;12504;52.870;8.798;2023-03-01T04:33:25;6.60;;;4.30;;
24383;SDS011;12504;52.870;8.798;2023-03-01T04:35:52;9.70;;;5.27;;
24383;SDS011;12504;52.870;8.798;2023-03-01T04:38:18;9.17;;;5.27;;
24383;SDS011;12504;52.870;8.798;2023-03-01T04:41:08;12.00;;;5.10;;
24383;SDS011;12504;52.870;8.798;2023-03-01T04:43:34;11.23;;;5.33;;
24383;SDS011;12504;52.870;8.798;2023-03-01T04:46:05;10.50;;;5.57;;
24383;SDS011;12504;52.870;8.798;2023-03-01T04:48:34;9.90;;;4.83;;
24383;SDS011;12504;52.870;8.798;2023-03-01T04:51:00;9.00;;;4.80;;
24383;SDS011;12504;52.870;8.798;2023-03-01T04:53:27;7.97;;;5.50;;
24383;SDS011;12504;52.870;8.798;2023-03-01T04:55:54;11.13;;;4.80;;
24383;SDS011;12504;52.870;8.798;2023-03-01T04:58:21;9.50;;;4.70;;
24383;SDS011;12504;52.870;8.798;2023-03-01T05:00:47;8.80;;;4.90;;
24383;SDS011;12504;52.870;8.798;2023-03-01T05:03:13;11.83;;;4.97;;
24383;SDS011;12504;52.870;8.798;2023-03-01T05:05:43;7.47;;;5.15;;
24383;SDS011;12504;52.870;8.798;2023-03-01T05:08:29;7.70;;;4.00;;
24383;SDS011;12504;52.870;8.798;2023-03-01T05:10:55;10.40;;;4.50;;
24383;SDS011;12504;52.870;8.798;2023-03-01T05:13:21;11.00;;;4.82;;
24383;SDS011;12504;52.870;8.798;2023-03-01T05:15:54;7.37;;;3.97;;
24383;SDS011;12504;52.870;8.798;2023-03-01T05:18:22;9.47;;;5.07;;
24383;SDS011;12504;52.870;8.798;2023-03-01T05:20:51;12.75;;;5.50;;
24383;SDS011;12504;52.870;8.798;2023-03-01T05:23:17;11.80;;;5.43;;
24383;SDS011;12504;52.870;8.798;2023-03-01T05:25:44;9.80;;;6.00;;
24383;SDS011;12504;52.870;8.798;2023-03-01T05:28:11;14.27;;;6.28;;
24383;SDS011;12504;52.870;8.798;2023-03-01T05:30:37;11.30;;;5.93;;
24383;SDS011;12504;52.870;8.798;2023-03-01T05:33:07;12.87;;;6.40;;
24383;SDS011;12504;52.870;8.798;2023-03-01T05:35:39;9.80;;;5.57;;
24383;SDS011;12504;52.870;8.798;2023-03-01T05:38:07;9.27;;;5.60;;
24383;SDS011;12504;52.870;8.798;2023-03-01T05:40:51;10.20;;;5.30;;
24383;SDS011;12504;52.870;8.798;2023-03-01T05:43:17;11.87;;;5.90;;
24383;SDS011;12504;52.870;8.798;2023-03-01T05:45:44;11.53;;;5.10;;
24383;SDS011;12504;52.870;8.798;2023-03-01T05:48:10;7.40;;;4.27;;
24383;SDS011;12504;52.870;8.798;2023-03-01T05:50:44;11.87;;;5.37;;
24383;SDS011;12504;52.870;8.798;2023-03-01T05:55:37;9.83;;;4.87;;
24383;SDS011;12504;52.870;8.798;2023-03-01T05:58:05;8.10;;;4.43;;
24383;SDS011;12504;52.870;8.798;2023-03-01T06:00:31;8.37;;;5.10;;
24383;SDS011;12504;52.870;8.798;2023-03-01T06:02:58;12.77;;;6.00;;
24383;SDS011;12504;52.870;8.798;2023-03-01T06:05:25;12.83;;;5.17;;
24383;SDS011;12504;52.870;8.798;2023-03-01T06:07:51;7.43;;;4.80;;
24383;SDS011;12504;52.870;8.798;2023-03-01T06:10:19;8.93;;;5.63;;
24383;SDS011;12504;52.870;8.798;2023-03-01T06:12:46;13.53;;;4.73;;
24383;SDS011;12504;52.870;8.798;2023-03-01T06:15:13;12.63;;;6.27;;
24383;SDS011;12504;52.870;8.798;2023-03-01T06:17:40;12.67;;;6.27;;
24383;SDS011;12504;52.870;8.798;2023-03-01T06:22:39;16.40;;;6.60;;
24383;SDS011;12504;52.870;8.798;2023-03-01T06:25:06;12.97;;;6.07;;
24383;SDS011;12504;52.870;8.798;2023-03-01T06:27:32;10.30;;;6.17;;
24383;SDS011;12504;52.870;8.798;2023-03-01T06:29:58;13.83;;;7.87;;
24383;SDS011;12504;52.870;8.798;2023-03-01T06:32:47;11.10;;;6.07;;
24383;SDS011;12504;52.870;8.798;2023-03-01T06:35:14;17.37;;;7.70;;
24383;SDS011;12504;52.870;8.798;2023-03-01T06:37:42;12.67;;;7.53;;
24383;SDS011;12504;52.870;8.798;2023-03-01T06:40:09;9.80;;;5.83;;
24383;SDS011;12504;52.870;8.798;2023-03-01T06:42:37;12.33;;;6.17;;
24383;SDS011;12504;52.870;8.798;2023-03-01T06:45:03;13.68;;;7.10;;
24383;SDS011;12504;52.870;8.798;2023-03-01T06:47:30;13.00;;;6.78;;
24383;SDS011;12504;52.870;8.798;2023-03-01T06:49:56;13.70;;;7.10;;
24383;SDS011;12504;52.870;8.798;2023-03-01T06:52:44;14.52;;;8.43;;
24383;SDS011;12504;52.870;8.798;2023-03-01T06:55:11;14.33;;;6.97;;
24383;SDS011;12504;52.870;8.798;2023-03-01T06:57:39;11.93;;;7.25;;
24383;SDS011;12504;52.870;8.798;2023-03-01T07:00:05;16.77;;;8.63;;
24383;SDS011;12504;52.870;8.798;2023-03-01T07:02:32;18.23;;;8.83;;
24383;SDS011;12504;52.870;8.798;2023-03-01T07:04:58;18.00;;;8.53;;
24383;SDS011;12504;52.870;8.798;2023-03-01T07:07:24;12.00;;;8.33;;
24383;SDS011;12504;52.870;8.798;2023-03-01T07:09:51;16.60;;;7.07;;
24383;SDS011;12504;52.870;8.798;2023-03-01T07:12:18;15.43;;;8.68;;
24383;SDS011;12504;52.870;8.798;2023-03-01T07:14:46;16.55;;;7.22;;
24383;SDS011;12504;52.870;8.798;2023-03-01T07:17:12;18.48;;;8.07;;
24383;SDS011;12504;52.870;8.798;2023-03-01T07:19:39;15.35;;;8.02;;
24383;SDS011;12504;52.870;8.798;2023-03-01T07:22:05;18.55;;;8.23;;
24383;SDS011;12504;52.870;8.798;2023-03-01T07:24:33;17.42;;;8.40;;
24383;SDS011;12504;52.870;8.798;2023-03-01T07:26:59;18.02;;;9.02;;
24383;SDS011;12504;52.870;8.798;2023-03-01T07:29:25;21.30;;;9.15;;
24383;SDS011;12504;52.870;8.798;2023-03-01T07:31:54;14.63;;;8.48;;
24383;SDS011;12504;52.870;8.798;2023-03-01T07:34:20;14.20;;;7.57;;
24383;SDS011;12504;52.870;8.798;2023-03-01T07:36:46;14.77;;;8.30;;
24383;SDS011;12504;52.870;8.798;2023-03-01T07:39:13;12.10;;;7.95;;
24383;SDS011;12504;52.870;8.798;2023-03-01T07:41:40;17.60;;;8.70;;
24383;SDS011;12504;52.870;8.798;2023-03-01T07:44:06;16.00;;;8.52;;
24383;SDS011;12504;52.870;8.798;2023-03-01T07:49:00;14.07;;;8.40;;
24383;SDS011;12504;52.870;8.798;2023-03-01T07:51:26;14.52;;;8.05;;
24383;SDS011;12504;52.870;8.798;2023-03-01T07:53:56;12.25;;;8.65;;
24383;SDS011;12504;52.870;8.798;2023-03-01T07:56:22;14.48;;;8.35;;
24383;SDS011;12504;52.870;8.798;2023-03-01T07:58:48;14.60;;;7.07;;
24383;SDS011;12504;52.870;8.798;2023-03-01T08:01:15;11.38;;;7.28;;
24383;SDS011;12504;52.870;8.798;2023-03-01T08:03:43;11.23;;;6.78;;
24383;SDS011;12504;52.870;8.798;2023-03-01T08:06:09;10.55;;;7.00;;
24383;SDS011;12504;52.870;8.798;2023-03-01T08:08:36;9.15;;;5.95;;
24383;SDS011;12504;52.870;8.798;2023-03-01T08:11:03;11.10;;;5.85;;
24383;SDS011;12504;52.870;8.798;2023-03-01T08:13:30;10.73;;;7.15;;
24383;SDS011;12504;52.870;8.798;2023-03-01T08:16:03;14.77;;;6.53;;
24383;SDS011;12504;52.870;8.798;2023-03-01T08:18:34;13.20;;;6.30;;
24383;SDS011;12504;52.870;8.798;2023-03-01T08:21:07;10.93;;;6.93;;
24383;SDS011;12504;52.870;8.798;2023-03-01T08:23:35;10.88;;;6.57;;
24383;SDS011;12504;52.870;8.798;2023-03-01T08:26:05;10.57;;;5.75;;
24383;SDS011;12504;52.870;8.798;2023-03-01T08:28:38;13.20;;;6.38;;
24383;SDS011;12504;52.870;8.798;2023-03-01T08:31:24;10.70;;;5.38;;
24383;SDS011;12504;52.870;8.798;2023-03-01T08:33:53;12.93;;;5.35;;
24383;SDS011;12504;52.870;8.798;2023-03-01T08:36:24;16.23;;;5.82;;
24383;SDS011;12504;52.870;8.798;2023-03-01T08:38:51;10.43;;;5.07;;
24383;SDS011;12504;52.870;8.798;2023-03-01T08:41:17;10.02;;;5.82;;
24383;SDS011;12504;52.870;8.798;2023-03-01T08:43:43;13.63;;;6.43;;
24383;SDS011;12504;52.870;8.798;2023-03-01T08:46:09;11.43;;;5.90;;
24383;SDS011;12504;52.870;8.798;2023-03-01T08:48:36;12.95;;;4.90;;
24383;SDS011;12504;52.870;8.798;2023-03-01T08:51:14;9.40;;;4.55;;
24383;SDS011;12504;52.870;8.798;2023-03-01T08:53:42;6.22;;;4.28;;
24383;SDS011;12504;52.870;8.798;2023-03-01T08:56:08;7.53;;;4.35;;
24383;SDS011;12504;52.870;8.798;2023-03-01T08:58:34;9.15;;;4.45;;
24383;SDS011;12504;52.870;8.798;2023-03-01T09:01:04;11.43;;;4.97;;
24383;SDS011;12504;52.870;8.798;2023-03-01T09:03:33;7.53;;;4.78;;
24383;SDS011;12504;52.870;8.798;2023-03-01T09:06:02;9.80;;;5.10;;
24383;SDS011;12504;52.870;8.798;2023-03-01T09:08:30;15.02;;;6.38;;
24383;SDS011;12504;52.870;8.798;2023-03-01T09:10:56;9.75;;;5.75;;
24383;SDS011;12504;52.870;8.798;2023-03-01T09:13:21;7.57;;;4.50;;
24383;SDS011;12504;52.870;8.798;2023-03-01T09:15:50;7.15;;;4.25;;
24383;SDS011;12504;52.870;8.798;2023-03-01T09:18:16;8.55;;;3.95;;
24383;SDS011;12504;52.870;8.798;2023-03-01T09:20:42;4.75;;;3.55;;
24383;SDS011;12504;52.870;8.798;2023-03-01T09:23:08;6.22;;;3.13;;
24383;SDS011;12504;52.870;8.798;2023-03-01T09:25:34;6.75;;;3.40;;
24383;SDS011;12504;52.870;8.798;2023-03-01T09:28:00;6.70;;;3.90;;
24383;SDS011;12504;52.870;8.798;2023-03-01T09:30:26;10.13;;;4.50;;
24383;SDS011;12504;52.870;8.798;2023-03-01T09:32:52;9.75;;;5.25;;
24383;SDS011;12504;52.870;8.798;2023-03-01T09:35:17;11.73;;;4.43;;
24383;SDS011;12504;52.870;8.798;2023-03-01T09:37:44;9.57;;;5.57;;
24383;SDS011;12504;52.870;8.798;2023-03-01T09:40:17;6.28;;;4.60;;
24383;SDS011;12504;52.870;8.798;2023-03-01T09:43:01;7.55;;;5.57;;
24383;SDS011;12504;52.870;8.798;2023-03-01T09:45:34;7.78;;;5.13;;
24383;SDS011;12504;52.870;8.798;2023-03-01T09:48:03;9.27;;;5.22;;
24383;SDS011;12504;52.870;8.798;2023-03-01T09:50:35;7.20;;;4.32;;
24383;SDS011;12504;52.870;8.798;2023-03-01T09:53:05;9.32;;;4.78;;
24383;SDS011;12504;52.870;8.798;2023-03-01T09:55:37;8.68;;;5.22;;
24383;SDS011;12504;52.870;8.798;2023-03-01T09:58:25;7.53;;;4.72;;
24383;SDS011;12504;52.870;8.798;2023-03-01T10:00:56;5.95;;;4.53;;
24383;SDS011;12504;52.870;8.798;2023-03-01T10:03:39;7.95;;;3.70;;
24383;SDS011;12504;52.870;8.798;2023-03-01T10:06:13;6.10;;;3.70;;
24383;SDS011;12504;52.870;8.798;2023-03-01T10:09:03;10.25;;;5.13;;
24383;SDS011;12504;52.870;8.798;2023-03-01T10:11:37;7.82;;;3.70;;
24383;SDS011;12504;52.870;8.798;2023-03-01T10:19:57;7.60;;;3.90;;
24383;SDS011;12504;52.870;8.798;2023-03-01T10:22:42;12.90;;;4.00;;
24383;SDS011;12504;52.870;8.798;2023-03-01T10:25:12;5.53;;;2.85;;
24383;SDS011;12504;52.870;8.798;2023-03-01T10:27:46;4.38;;;3.20;;
24383;SDS011;12504;52.870;8.798;2023-03-01T10:32:48;7.13;;;3.70;;
24383;SDS011;12504;52.870;8.798;2023-03-01T10:35:17;6.43;;;3.45;;
24383;SDS011;12504;52.870;8.798;2023-03-01T10:38:03;7.93;;;3.70;;
24383;SDS011;12504;52.870;8.798;2023-03-01T10:40:32;8.10;;;3.97;;
24383;SDS011;12504;52.870;8.798;2023-03-01T10:43:03;3.70;;;3.33;;
24383;SDS011;12504;52.870;8.798;2023-03-01T10:45:37;6.70;;;3.90;;
24383;SDS011;12504;52.870;8.798;2023-03-01T10:51:04;5.88;;;3.33;;
24383;SDS011;12504;52.870;8.798;2023-03-01T10:53:35;7.32;;;3.08;;
24383;SDS011;12504;52.870;8.798;2023-03-01T10:56:14;8.52;;;4.30;;
24383;SDS011;12504;52.870;8.798;2023-03-01T10:58:41;10.30;;;4.43;;
24383;SDS011;12504;52.870;8.798;2023-03-01T11:03:54;9.15;;;4.47;;
24383;SDS011;12504;52.870;8.798;2023-03-01T11:06:31;8.45;;;5.32;;
24383;SDS011;12504;52.870;8.798;2023-03-01T11:09:01;10.13;;;5.93;;
24383;SDS011;12504;52.870;8.798;2023-03-01T11:11:43;11.38;;;4.82;;
24383;SDS011;12504;52.870;8.798;2023-03-01T11:14:17;15.15;;;5.53;;
24383;SDS011;12504;52.870;8.798;2023-03-01T11:16:48;14.27;;;5.68;;
24383;SDS011;12504;52.870;8.798;2023-03-01T11:19:23;11.75;;;7.00;;
24383;SDS011;12504;52.870;8.798;2023-03-01T11:27:03;19.67;;;7.38;;
24383;SDS011;12504;52.870;8.798;2023-03-01T11:29:45;16.15;;;7.00;;
24383;SDS011;12504;52.870;8.798;2023-03-01T11:32:23;13.10;;;7.03;;
24383;SDS011;12504;52.870;8.798;2023-03-01T11:35:02;18.57;;;9.30;;
24383;SDS011;12504;52.870;8.798;2023-03-01T11:37:44;17.45;;;8.07;;
24383;SDS011;12504;52.870;8.798;2023-03-01T11:40:28;18.42;;;7.97;;
24383;SDS011;12504;52.870;8.798;2023-03-01T11:56:50;13.77;;;6.20;;
24383;SDS011;12504;52.870;8.798;2023-03-01T11:59:50;11.27;;;6.57;;
24383;SDS011;12504;52.870;8.798;2023-03-01T12:02:31;11.50;;;6.95;;
24383;SDS011;12504;52.870;8.798;2023-03-01T12:05:13;11.85;;;6.35;;
24383;SDS011;12504;52.870;8.798;2023-03-01T12:07:58;11.68;;;6.35;;
24383;SDS011;12504;52.870;8.798;2023-03-01T12:10:57;12.65;;;6.47;;
24383;SDS011;12504;52.870;8.798;2023-03-01T12:16:14;13.23;;;6.93;;
24383;SDS011;12504;52.870;8.798;2023-03-01T12:19:04;14.75;;;6.72;;
24383;SDS011;12504;52.870;8.798;2023-03-01T12:21:53;12.80;;;7.35;;
24383;SDS011;12504;52.870;8.798;2023-03-01T12:32:54;13.90;;;7.47;;
24383;SDS011;12504;52.870;8.798;2023-03-01T12:35:35;13.45;;;7.00;;
24383;SDS011;12504;52.870;8.798;2023-03-01T12:38:07;13.93;;;7.10;;
24383;SDS011;12504;52.870;8.798;2023-03-01T12:40:53;13.38;;;7.07;;
24383;SDS011;12504;52.870;8.798;2023-03-01T12:43:41;14.73;;;7.32;;
24383;SDS011;12504;52.870;8.798;2023-03-01T12:46:28;13.88;;;6.78;;
24383;SDS011;12504;52.870;8.798;2023-03-01T12:51:40;13.23;;;8.02;;
24383;SDS011;12504;52.870;8.798;2023-03-01T12:54:16;15.18;;;6.78;;
24383;SDS011;12504;52.870;8.798;2023-03-01T12:56:55;14.30;;;7.55;;
24383;SDS011;12504;52.870;8.798;2023-03-01T13:10:06;15.88;;;6.75;;
24383;SDS011;12504;52.870;8.798;2023-03-01T13:17:47;15.43;;;7.32;;
24383;SDS011;12504;52.870;8.798;2023-03-01T13:20:18;14.13;;;7.32;;
24383;SDS011;12504;52.870;8.798;2023-03-01T13:22:46;12.43;;;6.70;;
24383;SDS011;12504;52.870;8.798;2023-03-01T13:25:14;14.68;;;7.78;;
24383;SDS011;12504;52.870;8.798;2023-03-01T13:27:43;11.20;;;7.88;;
24383;SDS011;12504;52.870;8.798;2023-03-01T13:41:11;12.90;;;7.40;;
24383;SDS011;12504;52.870;8.798;2023-03-01T13:46:26;13.63;;;6.78;;
24383;SDS011;12504;52.870;8.798;2023-03-01T13:48:53;11.30;;;6.78;;
24383;SDS011;12504;52.870;8.798;2023-03-01T13:51:22;13.77;;;7.35;;
24383;SDS011;12504;52.870;8.798;2023-03-01T13:53:50;12.85;;;6.53;;
24383;SDS011;12504;52.870;8.798;2023-03-01T13:58:50;12.73;;;6.47;;
24383;SDS011;12504;52.870;8.798;2023-03-01T14:03:52;18.58;;;7.38;;
24383;SDS011;12504;52.870;8.798;2023-03-01T14:06:36;12.95;;;7.38;;
24383;SDS011;12504;52.870;8.798;2023-03-01T14:09:16;12.85;;;6.20;;
24383;SDS011;12504;52.870;8.798;2023-03-01T14:11:52;11.52;;;6.30;;
24383;SDS011;12504;52.870;8.798;2023-03-01T14:14:32;11.45;;;7.43;;
24383;SDS011;12504;52.870;8.798;2023-03-01T14:19:45;15.43;;;6.85;;
24383;SDS011;12504;52.870;8.798;2023-03-01T14:25:03;13.15;;;8.07;;
24383;SDS011;12504;52.870;8.798;2023-03-01T14:27:41;10.07;;;6.63;;
24383;SDS011;12504;52.870;8.798;2023-03-01T14:32:42;11.00;;;6.90;;
24383;SDS011;12504;52.870;8.798;2023-03-01T14:38:21;11.85;;;6.68;;
24383;SDS011;12504;52.870;8.798;2023-03-01T14:40:48;11.93;;;6.88;;
24383;SDS011;12504;52.870;8.798;2023-03-01T14:43:20;12.63;;;6.82;;
24383;SDS011;12504;52.870;8.798;2023-03-01T14:45:49;11.55;;;7.28;;
24383;SDS011;12504;52.870;8.798;2023-03-01T14:48:16;11.73;;;7.45;;
24383;SDS011;12504;52.870;8.798;2023-03-01T14:50:42;13.35;;;7.38;;
24383;SDS011;12504;52.870;8.798;2023-03-01T14:53:19;12.35;;;6.60;;
24383;SDS011;12504;52.870;8.798;2023-03-01T14:55:50;12.75;;;7.20;;
24383;SDS011;12504;52.870;8.798;2023-03-01T14:58:22;16.83;;;7.32;;
24383;SDS011;12504;52.870;8.798;2023-03-01T15:00:56;16.48;;;8.50;;
24383;SDS011;12504;52.870;8.798;2023-03-01T15:03:25;12.80;;;7.20;;
24383;SDS011;12504;52.870;8.798;2023-03-01T15:05:58;14.13;;;6.82;;
24383;SDS011;12504;52.870;8.798;2023-03-01T15:08:26;10.57;;;6.63;;
24383;SDS011;12504;52.870;8.798;2023-03-01T15:11:02;14.30;;;8.30;;
24383;SDS011;12504;52.870;8.798;2023-03-01T15:13:39;13.73;;;7.78;;
24383;SDS011;12504;52.870;8.798;2023-03-01T15:16:27;12.98;;;7.07;;
24383;SDS011;12504;52.870;8.798;2023-03-01T15:18:57;15.88;;;7.70;;
24383;SDS011;12504;52.870;8.798;2023-03-01T15:21:27;13.80;;;8.18;;
24383;SDS011;12504;52.870;8.798;2023-03-01T15:26:29;24.55;;;10.52;;
24383;SDS011;12504;52.870;8.798;2023-03-01T15:28:58;19.50;;;9.77;;
24383;SDS011;12504;52.870;8.798;2023-03-01T15:31:29;16.48;;;9.10;;
24383;SDS011;12504;52.870;8.798;2023-03-01T15:36:45;13.02;;;7.50;;
24383;SDS011;12504;52.870;8.798;2023-03-01T15:41:57;15.25;;;8.02;;
24383;SDS011;12504;52.870;8.798;2023-03-01T15:44:30;14.70;;;7.85;;
24383;SDS011;12504;52.870;8.798;2023-03-01T15:46:57;12.80;;;7.60;;
24383;SDS011;12504;52.870;8.798;2023-03-01T15:49:26;15.05;;;8.23;;
24383;SDS011;12504;52.870;8.798;2023-03-01T15:51:58;11.93;;;8.10;;
24383;SDS011;12504;52.870;8.798;2023-03-01T15:54:24;16.45;;;7.63;;
24383;SDS011;12504;52.870;8.798;2023-03-01T15:56:51;14.43;;;8.30;;
24383;SDS011;12504;52.870;8.798;2023-03-01T15:59:17;14.77;;;7.00;;
24383;SDS011;12504;52.870;8.798;2023-03-01T16:01:44;10.75;;;6.57;;
24383;SDS011;12504;52.870;8.798;2023-03-01T16:04:14;19.00;;;8.35;;
24383;SDS011;12504;52.870;8.798;2023-03-01T16:06:50;11.70;;;7.35;;
24383;SDS011;12504;52.870;8.798;2023-03-01T16:11:49;14.23;;;6.63;;
24383;SDS011;12504;52.870;8.798;2023-03-01T16:14:16;13.40;;;7.15;;
24383;SDS011;12504;52.870;8.798;2023-03-01T16:16:43;15.73;;;7.28;;
24383;SDS011;12504;52.870;8.798;2023-03-01T16:19:09;11.32;;;6.15;;
24383;SDS011;12504;52.870;8.798;2023-03-01T16:21:35;10.80;;;6.82;;
24383;SDS011;12504;52.870;8.798;2023-03-01T16:24:01;13.23;;;7.75;;
24383;SDS011;12504;52.870;8.798;2023-03-01T16:26:27;16.30;;;8.65;;
24383;SDS011;12504;52.870;8.798;2023-03-01T16:28:56;14.15;;;7.10;;
24383;SDS011;12504;52.870;8.798;2023-03-01T16:31:22;12.20;;;7.68;;
24383;SDS011;12504;52.870;8.798;2023-03-01T16:33:52;12.50;;;7.32;;
24383;SDS011;12504;52.870;8.798;2023-03-01T16:36:19;11.75;;;6.95;;
24383;SDS011;12504;52.870;8.798;2023-03-01T16:38:45;15.73;;;7.18;;
24383;SDS011;12504;52.870;8.798;2023-03-01T16:41:16;13.07;;;7.18;;
24383;SDS011;12504;52.870;8.798;2023-03-01T16:43:43;12.18;;;6.93;;
24383;SDS011;12504;52.870;8.798;2023-03-01T16:46:13;12.70;;;7.40;;
24383;SDS011;12504;52.870;8.798;2023-03-01T16:48:43;19.90;;;10.48;;
24383;SDS011;12504;52.870;8.798;2023-03-01T16:51:09;14.13;;;7.47;;
24383;SDS011;12504;52.870;8.798;2023-03-01T16:53:34;11.77;;;7.35;;
24383;SDS011;12504;52.870;8.798;2023-03-01T16:56:02;17.70;;;7.90;;
24383;SDS011;12504;52.870;8.798;2023-03-01T16:58:29;11.25;;;6.70;;
24383;SDS011;12504;52.870;8.798;2023-03-01T17:00:55;14.05;;;7.63;;